createdAt,value
2022-07-25T00:01:37.216Z,23.08
2022-07-25T00:06:36.007Z,22.81
2022-07-25T00:11:34.317Z,23.15
2022-07-25T00:16:33.201Z,23.52
2022-07-25T00:21:34.538Z,23.13
2022-07-25T00:26:39.725Z,23.04
2022-07-25T00:32:07.822Z,23.50
2022-07-25T00:37:07.906Z,23.32
2022-07-25T00:42:05.528Z,23.05
2022-07-25T00:47:04.424Z,22.66
2022-07-25T00:52:05.706Z,22.46
2022-07-25T00:57:04.422Z,22.27
2022-07-25T01:02:04.121Z,22.48
2022-07-25T01:07:02.634Z,22.61
2022-07-25T01:12:01.109Z,22.51
2022-07-25T01:16:59.812Z,22.49
2022-07-25T01:22:03.436Z,22.50
2022-07-25T01:27:02.011Z,22.61
2022-07-25T01:32:00.797Z,22.48
2022-07-25T01:36:59.972Z,22.50
2022-07-25T01:41:58.352Z,22.49
2022-07-25T01:46:56.861Z,23.18
2022-07-25T01:51:57.201Z,23.14
2022-07-25T01:56:56.136Z,22.87
2022-07-25T02:01:54.907Z,23.36
2022-07-25T02:06:59.827Z,23.26
2022-07-25T02:11:58.896Z,23.39
2022-07-25T02:17:00.964Z,23.43
2022-07-25T02:22:00.754Z,23.61
2022-07-25T02:27:06.813Z,23.60
2022-07-25T02:32:05.567Z,23.48
2022-07-25T02:37:04.355Z,23.29
2022-07-25T02:42:05.087Z,23.74
2022-07-25T02:47:03.706Z,22.75
2022-07-25T02:52:03.111Z,22.58
2022-07-25T02:57:01.950Z,22.70
2022-07-25T03:02:00.705Z,22.79
2022-07-25T03:06:59.015Z,23.16
2022-07-25T03:11:56.832Z,23.43
2022-07-25T03:16:54.763Z,22.82
2022-07-25T03:21:52.648Z,23.20
2022-07-25T03:26:53.337Z,23.19
2022-07-25T03:31:50.830Z,23.59
2022-07-25T03:36:49.081Z,23.92
2022-07-25T03:41:47.675Z,23.98
2022-07-25T03:46:45.135Z,23.61
2022-07-25T03:51:43.791Z,23.92
2022-07-25T03:56:47.856Z,24.00
2022-07-25T04:01:47.564Z,23.48
2022-07-25T04:06:48.628Z,23.71
2022-07-25T04:11:46.955Z,23.60
2022-07-25T04:16:57.643Z,23.73
2022-07-25T04:21:59.204Z,23.79
2022-07-25T04:27:01.166Z,24.18
2022-07-25T04:31:59.350Z,24.05
2022-07-25T04:37:12.266Z,24.16
2022-07-25T04:42:11.941Z,24.16
2022-07-25T04:47:10.693Z,23.77
2022-07-25T04:52:09.710Z,23.50
2022-07-25T04:57:07.206Z,23.95
2022-07-25T05:02:05.966Z,24.04
2022-07-25T05:07:04.741Z,24.20
2022-07-25T05:12:03.595Z,24.55
2022-07-25T05:17:02.643Z,24.67
2022-07-25T05:22:01.442Z,24.70
2022-07-25T05:27:00.457Z,24.98
2022-07-25T05:32:03.658Z,24.87
2022-07-25T05:37:04.728Z,24.77
2022-07-25T05:42:02.673Z,25.12
2022-07-25T05:47:01.555Z,25.16
2022-07-25T05:52:13.228Z,25.00
2022-07-25T05:57:14.535Z,25.35
2022-07-25T06:02:13.494Z,25.71
2022-07-25T06:07:14.979Z,25.61
2022-07-25T06:12:15.671Z,25.82
2022-07-25T06:17:16.499Z,26.41
2022-07-25T06:22:16.944Z,26.17
2022-07-25T06:27:20.657Z,25.99
2022-07-25T06:32:21.304Z,25.71
2022-07-25T06:37:19.898Z,25.43
2022-07-25T06:42:17.902Z,25.41
2022-07-25T06:47:16.662Z,25.56
2022-07-25T06:52:14.824Z,25.77
2022-07-25T06:57:12.285Z,25.68
2022-07-25T07:02:10.304Z,25.81
2022-07-25T07:07:08.833Z,25.81
2022-07-25T07:12:11.385Z,25.99
2022-07-25T07:17:10.208Z,25.80
2022-07-25T07:22:10.280Z,25.81
2022-07-25T07:27:08.922Z,25.75
2022-07-25T07:32:07.184Z,26.38
2022-07-25T07:37:05.937Z,26.34
2022-07-25T07:42:05.736Z,26.27
2022-07-25T07:47:06.707Z,26.39
2022-07-25T07:52:16.970Z,26.71
2022-07-25T07:57:18.634Z,27.29
2022-07-25T08:02:20.079Z,27.12
2022-07-25T08:07:18.329Z,27.65
2022-07-25T08:12:17.438Z,27.90
2022-07-25T08:17:15.625Z,27.73
2022-07-25T08:22:15.585Z,28.53
2022-07-25T08:27:14.130Z,28.78
2022-07-25T08:32:14.729Z,29.44
2022-07-25T08:37:14.837Z,27.94
2022-07-25T08:42:16.969Z,28.30
2022-07-25T08:47:18.439Z,27.75
2022-07-25T08:52:21.417Z,28.44
2022-07-25T08:57:20.231Z,28.62
2022-07-25T09:02:20.611Z,28.55
2022-07-25T09:07:20.863Z,28.88
2022-07-25T09:12:26.337Z,28.96
2022-07-25T09:17:25.010Z,28.84
2022-07-25T09:22:25.519Z,28.52
2022-07-25T09:27:26.663Z,29.31
2022-07-25T09:32:25.520Z,28.93
2022-07-25T09:37:27.002Z,29.22
2022-07-25T09:42:32.471Z,28.90
2022-07-25T09:47:33.245Z,29.22
2022-07-25T09:52:30.920Z,29.30
2022-07-25T09:57:30.031Z,29.65
2022-07-25T10:02:50.225Z,29.96
2022-07-25T10:07:51.110Z,29.77
2022-07-25T10:13:11.612Z,29.55
2022-07-25T10:18:10.728Z,30.00
2022-07-25T10:23:28.597Z,30.46
2022-07-25T10:28:50.104Z,29.98
2022-07-25T10:33:56.797Z,29.87
2022-07-25T10:39:00.850Z,30.15
2022-07-25T10:44:03.207Z,30.67
2022-07-25T10:49:05.966Z,31.12
2022-07-25T10:54:18.137Z,31.18
2022-07-25T10:59:31.809Z,30.69
2022-07-25T11:04:54.355Z,31.13
2022-07-25T11:10:00.538Z,31.49
2022-07-25T11:15:06.808Z,31.19
2022-07-25T11:20:10.370Z,30.72
2022-07-25T11:25:19.395Z,30.58
2022-07-25T11:30:27.328Z,31.28
2022-07-25T11:35:30.424Z,31.71
2022-07-25T11:40:31.517Z,31.74
2022-07-25T11:45:34.716Z,31.80
2022-07-25T11:50:36.374Z,31.77
2022-07-25T11:55:42.977Z,32.09
2022-07-25T12:00:42.883Z,31.85
2022-07-25T12:05:45.767Z,31.94
2022-07-25T12:10:45.151Z,31.88
2022-07-25T12:15:44.476Z,32.19
2022-07-25T12:20:43.953Z,32.75
2022-07-25T12:25:44.811Z,32.60
2022-07-25T12:30:45.329Z,32.66
2022-07-25T12:35:44.902Z,32.46
2022-07-25T12:40:49.908Z,32.46
2022-07-25T12:45:54.119Z,32.68
2022-07-25T12:50:57.016Z,32.78
2022-07-25T12:56:22.021Z,32.44
2022-07-25T13:01:21.450Z,32.01
2022-07-25T13:06:33.397Z,32.35
2022-07-25T13:11:36.882Z,32.50
2022-07-25T13:16:38.136Z,34.07
2022-07-25T13:22:06.895Z,35.99
2022-07-25T13:27:13.264Z,37.94
2022-07-25T13:32:13.571Z,38.08
2022-07-25T13:37:15.090Z,37.95
2022-07-25T13:42:15.487Z,37.26
2022-07-25T13:47:18.851Z,36.18
2022-07-25T13:52:18.589Z,36.18
2022-07-25T13:57:21.363Z,36.25
2022-07-25T14:02:20.060Z,37.35
2022-07-25T14:07:20.356Z,38.15
2022-07-25T14:12:22.660Z,37.23
2022-07-25T14:17:27.056Z,38.12
2022-07-25T14:22:28.368Z,38.27
2022-07-25T14:27:26.918Z,36.19
2022-07-25T14:32:27.098Z,37.62
2022-07-25T14:37:28.066Z,38.41
2022-07-25T14:42:28.423Z,37.18
2022-07-25T14:47:28.248Z,36.03
2022-07-25T14:52:29.616Z,36.79
2022-07-25T14:57:31.392Z,35.96
2022-07-25T15:02:33.538Z,35.34
2022-07-25T15:07:38.789Z,36.14
2022-07-25T15:12:38.017Z,35.45
2022-07-25T15:17:42.352Z,35.14
2022-07-25T15:22:41.667Z,34.62
2022-07-25T15:27:40.048Z,33.78
2022-07-25T15:32:40.503Z,34.33
2022-07-25T15:37:40.625Z,36.50
2022-07-25T15:42:44.450Z,37.29
2022-07-25T15:47:47.472Z,36.25
2022-07-25T15:52:49.153Z,37.62
2022-07-25T15:57:48.535Z,37.63
2022-07-25T16:02:47.861Z,38.20
2022-07-25T16:07:47.093Z,37.45
2022-07-25T16:12:49.184Z,38.06
2022-07-25T16:18:02.719Z,37.71
2022-07-25T16:23:16.127Z,36.36
2022-07-25T16:28:15.499Z,35.49
2022-07-25T16:33:25.244Z,35.63
2022-07-25T16:39:18.224Z,35.23
2022-07-25T16:44:21.714Z,35.54
2022-07-25T16:49:30.476Z,35.56
2022-07-25T16:54:36.726Z,35.24
2022-07-25T16:59:37.515Z,34.00
2022-07-25T17:04:40.168Z,33.59
2022-07-25T17:09:58.165Z,32.19
2022-07-25T17:15:03.242Z,31.54
2022-07-25T17:20:08.780Z,31.34
2022-07-25T17:25:07.249Z,31.58
2022-07-25T17:30:05.822Z,31.53
2022-07-25T17:35:06.536Z,31.31
2022-07-25T17:40:05.212Z,31.26
2022-07-25T17:45:15.643Z,31.36
2022-07-25T17:50:17.408Z,31.51
2022-07-25T17:55:20.315Z,31.35
2022-07-25T18:00:27.527Z,31.28
2022-07-25T18:05:29.299Z,31.42
2022-07-25T18:10:36.182Z,31.02
2022-07-25T18:15:36.877Z,30.99
2022-07-25T18:20:40.800Z,30.82
2022-07-25T18:25:41.059Z,30.61
2022-07-25T18:30:42.791Z,30.49
2022-07-25T18:36:22.325Z,30.70
2022-07-25T18:41:29.897Z,30.41
2022-07-25T18:46:36.436Z,30.18
2022-07-25T18:51:58.005Z,30.32
2022-07-25T18:57:00.220Z,29.96
2022-07-25T19:01:59.855Z,30.01
2022-07-25T19:06:59.163Z,30.01
2022-07-25T19:12:05.429Z,29.93
2022-07-25T19:17:19.064Z,29.97
2022-07-25T19:22:23.301Z,30.04
2022-07-25T19:27:26.209Z,30.03
2022-07-25T19:38:26.577Z,29.44
2022-07-25T19:43:36.215Z,29.48
2022-07-25T19:48:49.266Z,29.32
2022-07-25T19:54:24.940Z,29.27
2022-07-25T19:59:54.689Z,29.50
2022-07-25T20:04:54.140Z,29.07
2022-07-25T20:10:00.696Z,28.88
2022-07-25T20:15:18.093Z,28.92
2022-07-25T20:20:24.945Z,29.05
2022-07-25T20:25:37.668Z,28.67
2022-07-25T20:31:11.664Z,28.73
2022-07-25T20:36:33.496Z,28.48
2022-07-25T20:41:49.249Z,28.50
2022-07-25T20:46:51.781Z,28.53
2022-07-25T20:51:59.344Z,28.34
2022-07-25T20:57:02.583Z,28.28
2022-07-25T21:02:22.069Z,27.65
2022-07-25T21:25:52.507Z,27.68
2022-07-25T21:31:03.553Z,27.47
2022-07-25T21:36:32.463Z,26.99
2022-07-25T21:41:36.110Z,27.22
2022-07-25T21:46:38.453Z,27.28
2022-07-25T21:51:40.977Z,26.83
2022-07-25T21:56:51.190Z,26.67
2022-07-25T22:01:48.989Z,27.17
2022-07-25T22:06:49.937Z,27.11
2022-07-25T22:11:50.939Z,26.89
2022-07-25T22:16:53.402Z,26.82
2022-07-25T22:21:57.925Z,26.84
2022-07-25T22:27:03.013Z,26.93
2022-07-25T22:32:04.212Z,27.03
2022-07-25T22:37:06.144Z,26.76
2022-07-25T22:42:17.236Z,27.01
2022-07-25T22:47:18.269Z,27.23
2022-07-25T22:52:17.158Z,27.05
2022-07-25T22:57:18.239Z,27.39
2022-07-25T23:02:23.322Z,26.76
2022-07-25T23:07:22.475Z,26.55
2022-07-25T23:12:22.470Z,25.87
2022-07-25T23:17:32.123Z,25.70
2022-07-25T23:22:33.518Z,25.36
2022-07-25T23:27:36.189Z,25.65
2022-07-25T23:32:44.313Z,25.81
2022-07-25T23:37:46.688Z,24.89
2022-07-25T23:42:45.739Z,25.40
2022-07-25T23:47:51.674Z,25.49
2022-07-25T23:53:02.199Z,25.08
2022-07-25T23:58:04.191Z,25.60
